sensor_id;sensor_type;location;lat;lon;timestamp;temperature;humidity
48978;DHT22;34793;48.940;2.618;2022-10-22T00:00:54;20.60;87.20
48978;DHT22;34793;48.940;2.618;2022-10-22T00:03:20;20.50;87.50
48978;DHT22;34793;48.940;2.618;2022-10-22T00:05:46;20.60;87.00
48978;DHT22;34793;48.940;2.618;2022-10-22T00:08:11;20.60;87.00
48978;DHT22;34793;48.940;2.618;2022-10-22T00:10:38;20.50;87.20
48978;DHT22;34793;48.940;2.618;2022-10-22T00:13:04;20.50;87.40
48978;DHT22;34793;48.940;2.618;2022-10-22T00:15:29;20.40;87.60
48978;DHT22;34793;48.940;2.618;2022-10-22T00:17:55;20.40;87.70
48978;DHT22;34793;48.940;2.618;2022-10-22T00:20:20;20.40;87.90
48978;DHT22;34793;48.940;2.618;2022-10-22T00:22:47;20.40;87.80
48978;DHT22;34793;48.940;2.618;2022-10-22T00:25:12;20.30;88.00
48978;DHT22;34793;48.940;2.618;2022-10-22T00:27:38;20.00;89.00
48978;DHT22;34793;48.940;2.618;2022-10-22T00:30:03;19.90;89.60
48978;DHT22;34793;48.940;2.618;2022-10-22T00:32:29;19.90;89.30
48978;DHT22;34793;48.940;2.618;2022-10-22T00:34:55;20.00;89.30
48978;DHT22;34793;48.940;2.618;2022-10-22T00:37:20;20.00;89.40
48978;DHT22;34793;48.940;2.618;2022-10-22T00:39:45;20.00;89.30
48978;DHT22;34793;48.940;2.618;2022-10-22T00:42:12;20.10;88.80
48978;DHT22;34793;48.940;2.618;2022-10-22T00:47:26;20.10;88.90
48978;DHT22;34793;48.940;2.618;2022-10-22T00:49:52;20.00;89.30
48978;DHT22;34793;48.940;2.618;2022-10-22T00:52:18;19.80;90.00
48978;DHT22;34793;48.940;2.618;2022-10-22T00:54:44;19.80;90.10
48978;DHT22;34793;48.940;2.618;2022-10-22T00:57:09;19.70;90.00
48978;DHT22;34793;48.940;2.618;2022-10-22T00:59:35;19.80;89.90
48978;DHT22;34793;48.940;2.618;2022-10-22T01:02:01;19.90;89.70
48978;DHT22;34793;48.940;2.618;2022-10-22T01:04:27;19.80;89.90
48978;DHT22;34793;48.940;2.618;2022-10-22T01:06:52;19.90;89.90
48978;DHT22;34793;48.940;2.618;2022-10-22T01:17:00;19.80;90.00
48978;DHT22;34793;48.940;2.618;2022-10-22T01:19:31;19.90;90.10
48978;DHT22;34793;48.940;2.618;2022-10-22T01:29:48;20.10;89.00
48978;DHT22;34793;48.940;2.618;2022-10-22T01:32:16;20.00;89.10
48978;DHT22;34793;48.940;2.618;2022-10-22T01:34:43;19.90;89.40
48978;DHT22;34793;48.940;2.618;2022-10-22T01:37:11;19.80;90.00
48978;DHT22;34793;48.940;2.618;2022-10-22T01:39:38;19.90;89.50
48978;DHT22;34793;48.940;2.618;2022-10-22T01:42:04;19.80;89.90
48978;DHT22;34793;48.940;2.618;2022-10-22T01:44:31;19.90;89.80
48978;DHT22;34793;48.940;2.618;2022-10-22T01:47:01;19.80;90.00
48978;DHT22;34793;48.940;2.618;2022-10-22T01:52:21;19.50;90.50
48978;DHT22;34793;48.940;2.618;2022-10-22T01:54:56;19.50;90.30
48978;DHT22;34793;48.940;2.618;2022-10-22T01:57:28;19.60;90.50
48978;DHT22;34793;48.940;2.618;2022-10-22T02:00:00;19.60;90.40
48978;DHT22;34793;48.940;2.618;2022-10-22T02:05:03;19.50;90.70
48978;DHT22;34793;48.940;2.618;2022-10-22T02:07:32;19.50;90.70
48978;DHT22;34793;48.940;2.618;2022-10-22T02:09:59;19.50;90.70
48978;DHT22;34793;48.940;2.618;2022-10-22T02:12:25;19.50;90.80
48978;DHT22;34793;48.940;2.618;2022-10-22T02:14:52;19.60;90.50
48978;DHT22;34793;48.940;2.618;2022-10-22T02:17:19;19.60;90.50
48978;DHT22;34793;48.940;2.618;2022-10-22T02:19:47;19.50;90.60
48978;DHT22;34793;48.940;2.618;2022-10-22T02:22:14;19.70;90.70
48978;DHT22;34793;48.940;2.618;2022-10-22T02:24:40;19.80;90.50
48978;DHT22;34793;48.940;2.618;2022-10-22T02:30:02;19.90;90.30
48978;DHT22;34793;48.940;2.618;2022-10-22T02:32:33;19.90;90.40
48978;DHT22;34793;48.940;2.618;2022-10-22T02:35:01;20.00;90.40
48978;DHT22;34793;48.940;2.618;2022-10-22T02:37:27;20.00;90.30
48978;DHT22;34793;48.940;2.618;2022-10-22T02:39:52;19.80;90.60
48978;DHT22;34793;48.940;2.618;2022-10-22T02:42:21;19.90;90.70
48978;DHT22;34793;48.940;2.618;2022-10-22T02:44:47;19.90;90.70
48978;DHT22;34793;48.940;2.618;2022-10-22T02:47:13;19.90;90.50
48978;DHT22;34793;48.940;2.618;2022-10-22T02:49:38;19.90;90.60
48978;DHT22;34793;48.940;2.618;2022-10-22T02:52:04;19.90;90.50
48978;DHT22;34793;48.940;2.618;2022-10-22T02:54:29;20.00;90.30
48978;DHT22;34793;48.940;2.618;2022-10-22T02:56:54;20.00;90.50
48978;DHT22;34793;48.940;2.618;2022-10-22T02:59:20;19.80;90.60
48978;DHT22;34793;48.940;2.618;2022-10-22T03:01:45;19.90;90.50
48978;DHT22;34793;48.940;2.618;2022-10-22T03:04:11;20.00;90.40
48978;DHT22;34793;48.940;2.618;2022-10-22T03:06:36;20.10;90.10
48978;DHT22;34793;48.940;2.618;2022-10-22T03:09:02;20.20;90.00
48978;DHT22;34793;48.940;2.618;2022-10-22T03:11:27;20.20;89.40
48978;DHT22;34793;48.940;2.618;2022-10-22T03:13:53;20.20;89.30
48978;DHT22;34793;48.940;2.618;2022-10-22T03:16:18;20.00;89.90
48978;DHT22;34793;48.940;2.618;2022-10-22T03:18:44;20.10;89.80
48978;DHT22;34793;48.940;2.618;2022-10-22T03:21:11;20.10;90.00
48978;DHT22;34793;48.940;2.618;2022-10-22T03:23:38;20.10;89.80
48978;DHT22;34793;48.940;2.618;2022-10-22T03:26:04;20.20;89.80
48978;DHT22;34793;48.940;2.618;2022-10-22T03:28:30;20.30;89.20
48978;DHT22;34793;48.940;2.618;2022-10-22T03:30:55;20.40;89.00
48978;DHT22;34793;48.940;2.618;2022-10-22T03:33:21;20.20;88.90
48978;DHT22;34793;48.940;2.618;2022-10-22T03:35:46;20.50;88.40
48978;DHT22;34793;48.940;2.618;2022-10-22T03:38:12;20.40;88.70
48978;DHT22;34793;48.940;2.618;2022-10-22T03:40:39;20.40;88.80
48978;DHT22;34793;48.940;2.618;2022-10-22T03:43:04;20.40;88.60
48978;DHT22;34793;48.940;2.618;2022-10-22T03:45:30;20.20;89.50
48978;DHT22;34793;48.940;2.618;2022-10-22T03:47:55;20.10;90.00
48978;DHT22;34793;48.940;2.618;2022-10-22T03:50:21;20.30;90.00
48978;DHT22;34793;48.940;2.618;2022-10-22T03:52:46;20.20;89.80
48978;DHT22;34793;48.940;2.618;2022-10-22T03:55:12;20.40;89.50
48978;DHT22;34793;48.940;2.618;2022-10-22T03:57:37;20.40;89.30
48978;DHT22;34793;48.940;2.618;2022-10-22T04:00:03;20.40;89.60
48978;DHT22;34793;48.940;2.618;2022-10-22T04:02:29;20.40;89.50
48978;DHT22;34793;48.940;2.618;2022-10-22T04:04:54;20.20;89.80
48978;DHT22;34793;48.940;2.618;2022-10-22T04:07:20;20.20;90.00
48978;DHT22;34793;48.940;2.618;2022-10-22T04:09:45;20.20;90.00
48978;DHT22;34793;48.940;2.618;2022-10-22T04:12:11;20.40;89.60
48978;DHT22;34793;48.940;2.618;2022-10-22T04:14:36;20.20;89.80
48978;DHT22;34793;48.940;2.618;2022-10-22T04:17:02;20.20;89.70
48978;DHT22;34793;48.940;2.618;2022-10-22T04:19:27;20.10;90.20
48978;DHT22;34793;48.940;2.618;2022-10-22T04:21:53;20.20;90.20
48978;DHT22;34793;48.940;2.618;2022-10-22T04:24:18;20.20;90.10
48978;DHT22;34793;48.940;2.618;2022-10-22T04:26:44;20.20;90.20
48978;DHT22;34793;48.940;2.618;2022-10-22T04:29:10;20.10;90.10
48978;DHT22;34793;48.940;2.618;2022-10-22T04:31:35;20.30;90.10
48978;DHT22;34793;48.940;2.618;2022-10-22T04:34:01;20.30;90.10
48978;DHT22;34793;48.940;2.618;2022-10-22T04:36:27;20.40;90.00
48978;DHT22;34793;48.940;2.618;2022-10-22T04:38:54;20.40;90.00
48978;DHT22;34793;48.940;2.618;2022-10-22T04:41:21;20.40;90.00
48978;DHT22;34793;48.940;2.618;2022-10-22T04:43:47;20.40;90.00
48978;DHT22;34793;48.940;2.618;2022-10-22T04:46:13;20.50;89.70
48978;DHT22;34793;48.940;2.618;2022-10-22T04:48:39;20.50;89.30
48978;DHT22;34793;48.940;2.618;2022-10-22T04:51:06;20.50;89.30
48978;DHT22;34793;48.940;2.618;2022-10-22T04:53:35;20.60;89.10
48978;DHT22;34793;48.940;2.618;2022-10-22T04:56:10;20.60;88.70
48978;DHT22;34793;48.940;2.618;2022-10-22T04:58:36;20.50;89.00
48978;DHT22;34793;48.940;2.618;2022-10-22T05:03:57;20.50;89.00
48978;DHT22;34793;48.940;2.618;2022-10-22T05:06:24;20.60;89.20
48978;DHT22;34793;48.940;2.618;2022-10-22T05:09:10;20.50;89.30
48978;DHT22;34793;48.940;2.618;2022-10-22T05:11:36;20.60;89.00
48978;DHT22;34793;48.940;2.618;2022-10-22T05:14:03;20.70;88.50
48978;DHT22;34793;48.940;2.618;2022-10-22T05:16:29;20.80;88.10
48978;DHT22;34793;48.940;2.618;2022-10-22T05:18:56;20.80;88.20
48978;DHT22;34793;48.940;2.618;2022-10-22T05:21:22;20.80;88.20
48978;DHT22;34793;48.940;2.618;2022-10-22T05:23:48;20.80;88.30
48978;DHT22;34793;48.940;2.618;2022-10-22T05:26:14;20.90;88.30
48978;DHT22;34793;48.940;2.618;2022-10-22T05:28:40;20.90;88.20
48978;DHT22;34793;48.940;2.618;2022-10-22T05:31:06;20.90;87.90
48978;DHT22;34793;48.940;2.618;2022-10-22T05:33:32;20.90;87.80
48978;DHT22;34793;48.940;2.618;2022-10-22T05:35:58;21.10;87.60
48978;DHT22;34793;48.940;2.618;2022-10-22T05:38:24;21.10;87.70
48978;DHT22;34793;48.940;2.618;2022-10-22T05:41:05;21.00;87.60
48978;DHT22;34793;48.940;2.618;2022-10-22T05:43:30;21.00;87.90
48978;DHT22;34793;48.940;2.618;2022-10-22T05:46:00;21.00;87.80
48978;DHT22;34793;48.940;2.618;2022-10-22T05:48:26;21.10;87.60
48978;DHT22;34793;48.940;2.618;2022-10-22T05:50:51;21.10;87.80
48978;DHT22;34793;48.940;2.618;2022-10-22T05:53:17;21.10;87.50
48978;DHT22;34793;48.940;2.618;2022-10-22T05:55:43;21.10;87.70
48978;DHT22;34793;48.940;2.618;2022-10-22T05:58:09;21.10;87.80
48978;DHT22;34793;48.940;2.618;2022-10-22T06:00:35;21.00;87.90
48978;DHT22;34793;48.940;2.618;2022-10-22T06:03:00;21.10;87.80
48978;DHT22;34793;48.940;2.618;2022-10-22T06:05:26;21.00;87.80
48978;DHT22;34793;48.940;2.618;2022-10-22T06:07:51;21.00;87.90
48978;DHT22;34793;48.940;2.618;2022-10-22T06:10:18;20.80;87.90
48978;DHT22;34793;48.940;2.618;2022-10-22T06:12:44;20.80;88.20
48978;DHT22;34793;48.940;2.618;2022-10-22T06:15:11;20.70;87.90
48978;DHT22;34793;48.940;2.618;2022-10-22T06:17:36;20.60;88.10
48978;DHT22;34793;48.940;2.618;2022-10-22T06:20:02;20.50;88.20
48978;DHT22;34793;48.940;2.618;2022-10-22T06:22:27;20.40;88.40
48978;DHT22;34793;48.940;2.618;2022-10-22T06:24:53;20.50;88.20
48978;DHT22;34793;48.940;2.618;2022-10-22T06:27:18;20.40;88.30
48978;DHT22;34793;48.940;2.618;2022-10-22T06:29:44;20.40;88.10
48978;DHT22;34793;48.940;2.618;2022-10-22T06:32:09;20.40;88.40
48978;DHT22;34793;48.940;2.618;2022-10-22T06:34:35;20.50;87.60
48978;DHT22;34793;48.940;2.618;2022-10-22T06:37:00;20.40;87.70
48978;DHT22;34793;48.940;2.618;2022-10-22T06:39:26;20.50;87.60
48978;DHT22;34793;48.940;2.618;2022-10-22T06:41:51;20.50;87.40
48978;DHT22;34793;48.940;2.618;2022-10-22T06:44:17;20.40;88.10
48978;DHT22;34793;48.940;2.618;2022-10-22T06:46:43;20.50;87.80
48978;DHT22;34793;48.940;2.618;2022-10-22T06:49:11;20.50;87.70
48978;DHT22;34793;48.940;2.618;2022-10-22T06:51:36;20.40;87.70
48978;DHT22;34793;48.940;2.618;2022-10-22T06:54:02;20.40;88.10
48978;DHT22;34793;48.940;2.618;2022-10-22T06:56:27;20.40;88.40
48978;DHT22;34793;48.940;2.618;2022-10-22T06:58:54;20.30;88.40
48978;DHT22;34793;48.940;2.618;2022-10-22T07:01:20;20.40;88.70
48978;DHT22;34793;48.940;2.618;2022-10-22T07:03:46;20.40;88.70
48978;DHT22;34793;48.940;2.618;2022-10-22T07:06:14;20.50;88.10
48978;DHT22;34793;48.940;2.618;2022-10-22T07:08:39;20.40;88.30
48978;DHT22;34793;48.940;2.618;2022-10-22T07:13:31;20.30;89.50
48978;DHT22;34793;48.940;2.618;2022-10-22T07:15:56;20.40;89.70
48978;DHT22;34793;48.940;2.618;2022-10-22T07:18:22;20.40;89.30
48978;DHT22;34793;48.940;2.618;2022-10-22T07:20:48;20.50;89.00
48978;DHT22;34793;48.940;2.618;2022-10-22T07:23:13;20.60;88.50
48978;DHT22;34793;48.940;2.618;2022-10-22T07:25:39;20.70;88.30
48978;DHT22;34793;48.940;2.618;2022-10-22T07:28:05;20.70;88.00
48978;DHT22;34793;48.940;2.618;2022-10-22T07:30:30;20.70;88.20
48978;DHT22;34793;48.940;2.618;2022-10-22T07:32:56;20.50;88.70
48978;DHT22;34793;48.940;2.618;2022-10-22T07:35:21;20.50;89.30
48978;DHT22;34793;48.940;2.618;2022-10-22T07:37:47;20.50;89.70
48978;DHT22;34793;48.940;2.618;2022-10-22T07:40:12;20.50;89.30
48978;DHT22;34793;48.940;2.618;2022-10-22T07:42:38;20.40;89.40
48978;DHT22;34793;48.940;2.618;2022-10-22T07:45:03;20.50;89.60
48978;DHT22;34793;48.940;2.618;2022-10-22T07:47:29;20.50;89.50
48978;DHT22;34793;48.940;2.618;2022-10-22T07:49:54;20.60;89.40
48978;DHT22;34793;48.940;2.618;2022-10-22T07:52:20;20.50;89.80
48978;DHT22;34793;48.940;2.618;2022-10-22T07:54:45;20.40;89.60
48978;DHT22;34793;48.940;2.618;2022-10-22T07:57:11;20.40;90.00
48978;DHT22;34793;48.940;2.618;2022-10-22T07:59:36;20.50;89.90
48978;DHT22;34793;48.940;2.618;2022-10-22T08:02:02;20.60;89.70
48978;DHT22;34793;48.940;2.618;2022-10-22T08:04:27;20.70;89.30
48978;DHT22;34793;48.940;2.618;2022-10-22T08:06:53;20.70;89.40
48978;DHT22;34793;48.940;2.618;2022-10-22T08:09:18;20.70;89.10
48978;DHT22;34793;48.940;2.618;2022-10-22T08:11:44;20.70;89.40
48978;DHT22;34793;48.940;2.618;2022-10-22T08:14:10;20.80;89.00
48978;DHT22;34793;48.940;2.618;2022-10-22T08:16:35;20.80;89.10
48978;DHT22;34793;48.940;2.618;2022-10-22T08:19:01;20.90;89.10
48978;DHT22;34793;48.940;2.618;2022-10-22T08:21:26;20.90;89.10
48978;DHT22;34793;48.940;2.618;2022-10-22T08:23:52;20.80;89.50
48978;DHT22;34793;48.940;2.618;2022-10-22T08:26:17;20.80;89.60
48978;DHT22;34793;48.940;2.618;2022-10-22T08:28:43;20.90;89.40
48978;DHT22;34793;48.940;2.618;2022-10-22T08:31:08;20.90;89.20
48978;DHT22;34793;48.940;2.618;2022-10-22T08:33:34;21.00;89.40
48978;DHT22;34793;48.940;2.618;2022-10-22T08:36:00;20.80;89.80
48978;DHT22;34793;48.940;2.618;2022-10-22T08:38:26;20.80;90.00
48978;DHT22;34793;48.940;2.618;2022-10-22T08:40:52;20.80;90.00
48978;DHT22;34793;48.940;2.618;2022-10-22T08:51:02;21.00;89.40
48978;DHT22;34793;48.940;2.618;2022-10-22T08:53:33;21.10;89.10
48978;DHT22;34793;48.940;2.618;2022-10-22T08:56:01;21.20;88.60
48978;DHT22;34793;48.940;2.618;2022-10-22T09:00:59;21.30;88.30
48978;DHT22;34793;48.940;2.618;2022-10-22T09:08:17;21.10;87.50
48978;DHT22;34793;48.940;2.618;2022-10-22T09:13:28;21.10;88.50
48978;DHT22;34793;48.940;2.618;2022-10-22T09:15:54;21.20;88.60
48978;DHT22;34793;48.940;2.618;2022-10-22T09:18:24;21.30;89.00
48978;DHT22;34793;48.940;2.618;2022-10-22T09:20:54;21.30;89.70
48978;DHT22;34793;48.940;2.618;2022-10-22T09:23:36;21.40;88.80
48978;DHT22;34793;48.940;2.618;2022-10-22T09:26:14;21.70;88.20
48978;DHT22;34793;48.940;2.618;2022-10-22T09:28:40;21.90;88.30
48978;DHT22;34793;48.940;2.618;2022-10-22T09:31:12;22.10;88.30
48978;DHT22;34793;48.940;2.618;2022-10-22T09:33:39;22.10;87.40
48978;DHT22;34793;48.940;2.618;2022-10-22T09:36:18;22.20;87.60
48978;DHT22;34793;48.940;2.618;2022-10-22T09:38:46;22.20;87.50
48978;DHT22;34793;48.940;2.618;2022-10-22T09:41:12;22.30;87.20
48978;DHT22;34793;48.940;2.618;2022-10-22T09:43:38;22.40;85.60
48978;DHT22;34793;48.940;2.618;2022-10-22T09:46:04;22.50;86.10
48978;DHT22;34793;48.940;2.618;2022-10-22T09:48:38;22.60;85.70
48978;DHT22;34793;48.940;2.618;2022-10-22T09:51:17;22.70;85.20
48978;DHT22;34793;48.940;2.618;2022-10-22T09:53:44;22.80;85.70
48978;DHT22;34793;48.940;2.618;2022-10-22T09:56:17;23.20;85.20
48978;DHT22;34793;48.940;2.618;2022-10-22T09:58:45;23.60;83.80
48978;DHT22;34793;48.940;2.618;2022-10-22T10:01:33;24.00;82.70
48978;DHT22;34793;48.940;2.618;2022-10-22T10:04:02;24.40;81.40
48978;DHT22;34793;48.940;2.618;2022-10-22T10:06:30;24.90;81.10
48978;DHT22;34793;48.940;2.618;2022-10-22T10:08:55;25.30;79.00
48978;DHT22;34793;48.940;2.618;2022-10-22T10:16:23;25.50;77.80
48978;DHT22;34793;48.940;2.618;2022-10-22T10:21:43;25.90;78.70
48978;DHT22;34793;48.940;2.618;2022-10-22T10:24:22;26.30;76.10
48978;DHT22;34793;48.940;2.618;2022-10-22T10:29:18;26.90;77.00
48978;DHT22;34793;48.940;2.618;2022-10-22T10:31:51;27.00;73.00
48978;DHT22;34793;48.940;2.618;2022-10-22T10:37:01;27.10;74.80
48978;DHT22;34793;48.940;2.618;2022-10-22T10:42:40;27.20;74.20
48978;DHT22;34793;48.940;2.618;2022-10-22T10:49:34;27.20;73.50
48978;DHT22;34793;48.940;2.618;2022-10-22T10:52:03;27.30;74.50
48978;DHT22;34793;48.940;2.618;2022-10-22T10:56:59;27.60;72.40
48978;DHT22;34793;48.940;2.618;2022-10-22T10:59:39;27.50;76.00
48978;DHT22;34793;48.940;2.618;2022-10-22T11:02:30;27.70;72.40
48978;DHT22;34793;48.940;2.618;2022-10-22T11:07:58;28.30;73.90
48978;DHT22;34793;48.940;2.618;2022-10-22T11:13:01;28.90;71.60
48978;DHT22;34793;48.940;2.618;2022-10-22T11:15:30;29.00;69.60
48978;DHT22;34793;48.940;2.618;2022-10-22T11:17:58;28.90;71.00
48978;DHT22;34793;48.940;2.618;2022-10-22T11:22:54;28.80;71.50
48978;DHT22;34793;48.940;2.618;2022-10-22T11:25:22;28.60;69.70
48978;DHT22;34793;48.940;2.618;2022-10-22T11:30:16;28.10;73.60
48978;DHT22;34793;48.940;2.618;2022-10-22T11:32:42;28.40;72.00
48978;DHT22;34793;48.940;2.618;2022-10-22T11:35:13;28.60;71.50
48978;DHT22;34793;48.940;2.618;2022-10-22T11:37:40;28.80;70.90
48978;DHT22;34793;48.940;2.618;2022-10-22T11:40:09;29.00;70.90
48978;DHT22;34793;48.940;2.618;2022-10-22T11:42:39;28.90;71.90
48978;DHT22;34793;48.940;2.618;2022-10-22T11:45:41;28.80;70.80
48978;DHT22;34793;48.940;2.618;2022-10-22T11:55:55;28.50;70.00
48978;DHT22;34793;48.940;2.618;2022-10-22T12:00:49;28.40;69.70
48978;DHT22;34793;48.940;2.618;2022-10-22T12:03:16;28.40;68.90
48978;DHT22;34793;48.940;2.618;2022-10-22T12:05:42;28.40;71.20
48978;DHT22;34793;48.940;2.618;2022-10-22T12:13:28;28.30;70.40
48978;DHT22;34793;48.940;2.618;2022-10-22T12:15:56;28.10;70.10
48978;DHT22;34793;48.940;2.618;2022-10-22T12:18:22;27.90;70.10
48978;DHT22;34793;48.940;2.618;2022-10-22T12:20:49;28.10;70.50
48978;DHT22;34793;48.940;2.618;2022-10-22T12:23:15;28.20;69.30
48978;DHT22;34793;48.940;2.618;2022-10-22T12:25:41;28.40;68.90
48978;DHT22;34793;48.940;2.618;2022-10-22T12:28:09;28.20;68.30
48978;DHT22;34793;48.940;2.618;2022-10-22T12:30:35;27.90;69.40
48978;DHT22;34793;48.940;2.618;2022-10-22T12:33:02;27.70;70.10
48978;DHT22;34793;48.940;2.618;2022-10-22T12:35:29;27.90;70.80
48978;DHT22;34793;48.940;2.618;2022-10-22T12:37:55;28.20;69.70
48978;DHT22;34793;48.940;2.618;2022-10-22T12:40:22;28.10;67.60
48978;DHT22;34793;48.940;2.618;2022-10-22T12:42:52;27.80;67.70
48978;DHT22;34793;48.940;2.618;2022-10-22T12:45:18;27.80;69.00
48978;DHT22;34793;48.940;2.618;2022-10-22T12:47:47;27.70;69.70
48978;DHT22;34793;48.940;2.618;2022-10-22T12:50:24;27.80;69.50
48978;DHT22;34793;48.940;2.618;2022-10-22T12:52:53;27.70;68.10
48978;DHT22;34793;48.940;2.618;2022-10-22T12:55:21;27.30;68.10
48978;DHT22;34793;48.940;2.618;2022-10-22T12:57:47;27.20;68.40
48978;DHT22;34793;48.940;2.618;2022-10-22T13:02:45;27.00;68.90
48978;DHT22;34793;48.940;2.618;2022-10-22T13:05:21;26.80;69.60
48978;DHT22;34793;48.940;2.618;2022-10-22T13:08:00;26.90;70.20
48978;DHT22;34793;48.940;2.618;2022-10-22T13:10:32;27.00;69.30
48978;DHT22;34793;48.940;2.618;2022-10-22T13:12:58;27.20;69.90
48978;DHT22;34793;48.940;2.618;2022-10-22T13:20:28;27.30;68.70
48978;DHT22;34793;48.940;2.618;2022-10-22T13:25:20;27.00;68.90
48978;DHT22;34793;48.940;2.618;2022-10-22T13:27:51;27.00;69.20
48978;DHT22;34793;48.940;2.618;2022-10-22T13:30:34;26.90;68.10
48978;DHT22;34793;48.940;2.618;2022-10-22T13:33:01;27.00;68.00
48978;DHT22;34793;48.940;2.618;2022-10-22T13:35:28;27.00;67.20
48978;DHT22;34793;48.940;2.618;2022-10-22T13:37:54;27.00;68.40
48978;DHT22;34793;48.940;2.618;2022-10-22T13:40:20;26.80;69.40
48978;DHT22;34793;48.940;2.618;2022-10-22T13:42:45;26.90;69.20
48978;DHT22;34793;48.940;2.618;2022-10-22T13:45:12;27.00;68.80
48978;DHT22;34793;48.940;2.618;2022-10-22T13:47:38;27.00;68.80
48978;DHT22;34793;48.940;2.618;2022-10-22T13:50:03;26.90;68.80
48978;DHT22;34793;48.940;2.618;2022-10-22T13:52:38;27.00;69.20
48978;DHT22;34793;48.940;2.618;2022-10-22T13:55:24;27.10;68.40
48978;DHT22;34793;48.940;2.618;2022-10-22T13:57:50;27.30;67.60
48978;DHT22;34793;48.940;2.618;2022-10-22T14:00:17;27.20;68.10
48978;DHT22;34793;48.940;2.618;2022-10-22T14:02:44;27.20;68.30
48978;DHT22;34793;48.940;2.618;2022-10-22T14:05:10;27.30;68.20
48978;DHT22;34793;48.940;2.618;2022-10-22T14:07:36;27.20;65.20
48978;DHT22;34793;48.940;2.618;2022-10-22T14:10:05;27.20;67.40
48978;DHT22;34793;48.940;2.618;2022-10-22T14:12:37;27.00;67.60
48978;DHT22;34793;48.940;2.618;2022-10-22T14:15:02;27.20;67.70
48978;DHT22;34793;48.940;2.618;2022-10-22T14:17:28;27.40;68.70
48978;DHT22;34793;48.940;2.618;2022-10-22T14:19:53;27.40;68.00
48978;DHT22;34793;48.940;2.618;2022-10-22T14:22:19;27.40;68.30
48978;DHT22;34793;48.940;2.618;2022-10-22T14:24:45;27.50;67.50
48978;DHT22;34793;48.940;2.618;2022-10-22T14:27:12;27.40;68.10
48978;DHT22;34793;48.940;2.618;2022-10-22T14:29:38;27.40;69.00
48978;DHT22;34793;48.940;2.618;2022-10-22T14:32:14;27.40;66.70
48978;DHT22;34793;48.940;2.618;2022-10-22T14:34:40;27.10;66.30
48978;DHT22;34793;48.940;2.618;2022-10-22T14:37:14;27.10;66.50
48978;DHT22;34793;48.940;2.618;2022-10-22T14:39:40;26.90;67.00
48978;DHT22;34793;48.940;2.618;2022-10-22T14:42:07;27.00;66.30
48978;DHT22;34793;48.940;2.618;2022-10-22T14:44:33;26.90;67.00
48978;DHT22;34793;48.940;2.618;2022-10-22T14:46:58;27.00;67.10
48978;DHT22;34793;48.940;2.618;2022-10-22T14:49:24;27.10;67.70
48978;DHT22;34793;48.940;2.618;2022-10-22T14:51:49;27.20;68.90
48978;DHT22;34793;48.940;2.618;2022-10-22T14:54:15;27.20;69.10
48978;DHT22;34793;48.940;2.618;2022-10-22T14:56:41;27.30;68.80
48978;DHT22;34793;48.940;2.618;2022-10-22T14:59:06;27.20;68.90
48978;DHT22;34793;48.940;2.618;2022-10-22T15:01:32;27.10;69.50
48978;DHT22;34793;48.940;2.618;2022-10-22T15:03:57;27.10;68.90
48978;DHT22;34793;48.940;2.618;2022-10-22T15:06:23;27.20;68.80
48978;DHT22;34793;48.940;2.618;2022-10-22T15:08:48;27.20;68.50
48978;DHT22;34793;48.940;2.618;2022-10-22T15:11:14;27.00;68.90
48978;DHT22;34793;48.940;2.618;2022-10-22T15:13:39;27.00;68.90
48978;DHT22;34793;48.940;2.618;2022-10-22T15:16:07;27.00;69.50
48978;DHT22;34793;48.940;2.618;2022-10-22T15:18:33;26.90;68.90
48978;DHT22;34793;48.940;2.618;2022-10-22T15:21:00;27.00;68.70
48978;DHT22;34793;48.940;2.618;2022-10-22T15:23:26;27.00;68.90
48978;DHT22;34793;48.940;2.618;2022-10-22T15:25:52;27.10;68.40
48978;DHT22;34793;48.940;2.618;2022-10-22T15:28:17;27.20;69.00
48978;DHT22;34793;48.940;2.618;2022-10-22T15:30:43;27.20;68.60
48978;DHT22;34793;48.940;2.618;2022-10-22T15:33:09;27.20;68.50
48978;DHT22;34793;48.940;2.618;2022-10-22T15:35:35;27.30;68.30
48978;DHT22;34793;48.940;2.618;2022-10-22T15:38:00;27.30;68.40
48978;DHT22;34793;48.940;2.618;2022-10-22T15:40:26;27.30;68.60
48978;DHT22;34793;48.940;2.618;2022-10-22T15:42:51;27.30;68.30
48978;DHT22;34793;48.940;2.618;2022-10-22T15:45:17;26.90;68.80
48978;DHT22;34793;48.940;2.618;2022-10-22T15:47:46;26.80;69.80
48978;DHT22;34793;48.940;2.618;2022-10-22T15:50:12;26.90;70.00
48978;DHT22;34793;48.940;2.618;2022-10-22T15:52:37;27.00;70.10
48978;DHT22;34793;48.940;2.618;2022-10-22T15:55:02;26.80;69.10
48978;DHT22;34793;48.940;2.618;2022-10-22T15:57:31;26.60;69.80
48978;DHT22;34793;48.940;2.618;2022-10-22T15:59:56;26.50;70.30
48978;DHT22;34793;48.940;2.618;2022-10-22T16:02:22;26.40;71.20
48978;DHT22;34793;48.940;2.618;2022-10-22T16:04:47;26.50;71.30
48978;DHT22;34793;48.940;2.618;2022-10-22T16:07:13;26.60;71.60
48978;DHT22;34793;48.940;2.618;2022-10-22T16:09:38;26.60;70.90
48978;DHT22;34793;48.940;2.618;2022-10-22T16:12:04;26.60;71.30
48978;DHT22;34793;48.940;2.618;2022-10-22T16:14:29;26.60;71.20
48978;DHT22;34793;48.940;2.618;2022-10-22T16:16:55;26.60;71.40
48978;DHT22;34793;48.940;2.618;2022-10-22T16:19:22;26.70;71.00
48978;DHT22;34793;48.940;2.618;2022-10-22T16:21:48;26.60;71.20
48978;DHT22;34793;48.940;2.618;2022-10-22T16:24:14;26.60;71.20
48978;DHT22;34793;48.940;2.618;2022-10-22T16:26:40;26.60;71.50
48978;DHT22;34793;48.940;2.618;2022-10-22T16:29:05;26.60;71.60
48978;DHT22;34793;48.940;2.618;2022-10-22T16:31:32;26.60;71.60
48978;DHT22;34793;48.940;2.618;2022-10-22T16:33:58;26.50;71.40
48978;DHT22;34793;48.940;2.618;2022-10-22T16:36:24;26.50;71.70
48978;DHT22;34793;48.940;2.618;2022-10-22T16:38:49;26.50;71.50
48978;DHT22;34793;48.940;2.618;2022-10-22T16:41:16;26.50;71.70
48978;DHT22;34793;48.940;2.618;2022-10-22T16:43:42;26.50;71.80
48978;DHT22;34793;48.940;2.618;2022-10-22T16:46:09;26.40;71.70
48978;DHT22;34793;48.940;2.618;2022-10-22T16:48:35;26.30;72.00
48978;DHT22;34793;48.940;2.618;2022-10-22T16:51:08;26.20;72.10
48978;DHT22;34793;48.940;2.618;2022-10-22T16:53:34;26.10;72.40
48978;DHT22;34793;48.940;2.618;2022-10-22T16:56:00;26.10;72.10
48978;DHT22;34793;48.940;2.618;2022-10-22T16:58:25;26.10;72.40
48978;DHT22;34793;48.940;2.618;2022-10-22T17:00:51;26.00;72.70
48978;DHT22;34793;48.940;2.618;2022-10-22T17:03:16;25.90;72.90
48978;DHT22;34793;48.940;2.618;2022-10-22T17:05:42;25.80;73.10
48978;DHT22;34793;48.940;2.618;2022-10-22T17:08:07;25.70;73.50
48978;DHT22;34793;48.940;2.618;2022-10-22T17:10:36;25.60;73.60
48978;DHT22;34793;48.940;2.618;2022-10-22T17:13:03;25.50;73.90
48978;DHT22;34793;48.940;2.618;2022-10-22T17:15:29;25.50;73.80
48978;DHT22;34793;48.940;2.618;2022-10-22T17:17:55;25.50;73.90